createdAt,value
2023-03-20T00:00:58.294Z,67.43
2023-03-20T00:02:01.084Z,61.67
2023-03-20T00:03:03.409Z,63.80
2023-03-20T00:04:06.122Z,65.07
2023-03-20T00:05:17.900Z,65.77
2023-03-20T00:06:25.643Z,62.96
2023-03-20T00:07:27.694Z,66.71
2023-03-20T00:08:29.819Z,62.13
2023-03-20T00:09:32.058Z,67.47
2023-03-20T00:11:53.579Z,61.08
2023-03-20T00:12:58.189Z,62.43
2023-03-20T00:14:03.371Z,63.42
2023-03-20T00:15:09.298Z,60.67
2023-03-20T00:16:11.955Z,62.49
2023-03-20T00:17:17.723Z,62.90
2023-03-20T00:18:22.572Z,59.33
2023-03-20T00:19:28.057Z,60.80
2023-03-20T00:20:31.703Z,57.73
2023-03-20T00:21:33.784Z,61.40
2023-03-20T00:22:35.789Z,63.29
2023-03-20T00:23:37.672Z,57.18
2023-03-20T00:24:40.681Z,58.71
2023-03-20T00:27:03.842Z,54.93
2023-03-20T00:28:29.333Z,53.73
2023-03-20T00:29:32.619Z,49.37
2023-03-20T00:30:34.784Z,53.16
2023-03-20T00:31:38.822Z,55.17
2023-03-20T00:32:41.497Z,51.67
2023-03-20T00:33:44.062Z,51.81
2023-03-20T00:34:45.948Z,51.06
2023-03-20T00:35:49.053Z,51.78
2023-03-20T00:36:52.731Z,51.58
2023-03-20T00:37:57.248Z,50.96
2023-03-20T00:38:59.196Z,56.47
2023-03-20T00:40:01.196Z,53.57
2023-03-20T00:41:07.034Z,51.49
2023-03-20T00:42:12.742Z,52.26
2023-03-20T00:43:14.804Z,52.92
2023-03-20T00:44:23.426Z,55.55
2023-03-20T00:45:28.647Z,53.51
2023-03-20T00:46:34.606Z,57.33
2023-03-20T00:47:38.528Z,50.66
2023-03-20T00:48:41.972Z,52.15
2023-03-20T00:49:45.929Z,56.27
2023-03-20T00:50:48.051Z,54.29
2023-03-20T00:51:49.956Z,52.11
2023-03-20T00:52:52.797Z,53.32
2023-03-20T00:53:54.692Z,50.85
2023-03-20T00:54:56.757Z,54.75
2023-03-20T00:56:00.966Z,50.90
2023-03-20T00:57:06.719Z,51.37
2023-03-20T00:58:10.911Z,59.14
2023-03-20T00:59:19.443Z,56.79
2023-03-20T01:00:35.571Z,55.82
2023-03-20T01:01:37.712Z,52.98
2023-03-20T01:02:39.699Z,52.08
2023-03-20T01:03:42.925Z,57.51
2023-03-20T01:04:45.534Z,57.13
2023-03-20T01:05:49.753Z,55.97
2023-03-20T01:06:52.635Z,54.22
2023-03-20T01:07:55.298Z,54.46
2023-03-20T01:08:57.188Z,53.77
2023-03-20T01:10:00.852Z,52.97
2023-03-20T01:11:03.276Z,55.46
2023-03-20T01:12:06.406Z,56.62
2023-03-20T01:13:28.581Z,57.34
2023-03-20T01:14:32.119Z,56.73
2023-03-20T01:15:35.516Z,52.38
2023-03-20T01:16:38.050Z,57.54
2023-03-20T01:17:40.192Z,56.95
2023-03-20T01:18:43.390Z,56.04
2023-03-20T01:19:45.802Z,57.01
2023-03-20T01:20:49.822Z,55.05
2023-03-20T01:21:52.825Z,54.81
2023-03-20T01:22:54.967Z,48.15
2023-03-20T01:23:58.377Z,55.71
2023-03-20T01:25:00.308Z,51.20
2023-03-20T01:26:04.213Z,51.00
2023-03-20T01:27:15.848Z,53.74
2023-03-20T01:28:21.280Z,49.57
2023-03-20T01:29:25.882Z,51.41
2023-03-20T01:30:30.839Z,65.88
2023-03-20T01:31:33.250Z,111.16
2023-03-20T01:32:35.634Z,151.21
2023-03-20T01:33:37.810Z,130.35
2023-03-20T01:34:39.700Z,107.85
2023-03-20T01:35:42.461Z,104.49
2023-03-20T01:36:52.148Z,112.62
2023-03-20T01:37:55.385Z,96.89
2023-03-20T01:38:58.371Z,82.67
2023-03-20T01:40:00.404Z,65.69
2023-03-20T01:41:15.487Z,55.16
2023-03-20T01:42:17.866Z,56.73
2023-03-20T01:43:21.952Z,57.03
2023-03-20T01:44:30.580Z,51.53
2023-03-20T01:45:35.901Z,55.53
2023-03-20T01:46:39.552Z,57.28
2023-03-20T01:47:42.242Z,60.70
2023-03-20T01:48:54.115Z,60.53
2023-03-20T01:50:25.853Z,60.07
2023-03-20T01:51:30.330Z,95.62
2023-03-20T01:52:32.466Z,85.22
2023-03-20T01:53:34.814Z,76.24
2023-03-20T01:54:39.150Z,81.81
2023-03-20T01:55:43.322Z,91.27
2023-03-20T01:56:49.423Z,81.94
2023-03-20T01:57:53.859Z,81.09
2023-03-20T01:58:59.552Z,75.37
2023-03-20T02:00:05.263Z,77.18
2023-03-20T02:01:09.766Z,64.63
2023-03-20T02:02:15.541Z,67.14
2023-03-20T02:03:18.638Z,59.42
2023-03-20T02:04:24.447Z,58.14
2023-03-20T02:05:27.279Z,50.27
2023-03-20T02:06:30.034Z,47.19
2023-03-20T02:07:34.426Z,44.88
2023-03-20T02:10:54.126Z,47.49
2023-03-20T02:11:58.360Z,46.38
2023-03-20T02:13:02.658Z,45.62
2023-03-20T02:14:06.109Z,51.19
2023-03-20T02:15:10.502Z,47.69
2023-03-20T02:16:15.427Z,46.49
2023-03-20T02:17:17.935Z,48.39
2023-03-20T02:18:19.977Z,45.37
2023-03-20T02:19:44.171Z,42.85
2023-03-20T02:21:08.304Z,45.88
2023-03-20T02:22:32.625Z,61.15
2023-03-20T02:24:12.103Z,66.27
2023-03-20T02:25:43.984Z,67.27
2023-03-20T02:28:14.739Z,51.91
2023-03-20T02:30:41.345Z,51.95
2023-03-20T02:31:56.183Z,49.64
2023-03-20T02:33:18.544Z,50.23
2023-03-20T02:34:57.961Z,51.18
2023-03-20T02:36:21.051Z,47.12
2023-03-20T02:37:33.631Z,54.63
2023-03-20T02:38:54.529Z,46.97
2023-03-20T02:40:33.571Z,53.19
2023-03-20T02:41:51.182Z,51.95
2023-03-20T02:43:06.031Z,48.59
2023-03-20T02:44:26.437Z,51.36
2023-03-20T02:45:38.126Z,48.60
2023-03-20T02:47:12.346Z,48.98
2023-03-20T02:48:41.345Z,50.86
2023-03-20T02:50:01.739Z,50.17
2023-03-20T02:51:10.432Z,53.25
2023-03-20T02:52:16.195Z,52.03
2023-03-20T02:53:25.031Z,50.94
2023-03-20T02:54:43.105Z,52.69
2023-03-20T02:56:08.430Z,54.27
2023-03-20T02:57:14.376Z,50.63
2023-03-20T03:00:48.804Z,52.61
2023-03-20T03:01:54.730Z,51.09
2023-03-20T03:03:06.297Z,55.48
2023-03-20T03:05:18.645Z,54.63
2023-03-20T03:06:31.848Z,53.50
2023-03-20T03:07:36.273Z,51.84
2023-03-20T03:08:41.954Z,54.84
2023-03-20T03:09:47.792Z,54.02
2023-03-20T03:10:56.764Z,49.93
2023-03-20T03:12:02.538Z,49.51
2023-03-20T03:13:07.738Z,52.88
2023-03-20T03:14:13.528Z,50.41
2023-03-20T03:15:30.837Z,49.12
2023-03-20T03:16:36.740Z,50.02
2023-03-20T03:17:43.536Z,50.77
2023-03-20T03:18:48.249Z,51.45
2023-03-20T03:19:53.438Z,49.64
2023-03-20T03:21:02.082Z,53.86
2023-03-20T03:22:05.712Z,52.31
2023-03-20T03:23:12.603Z,50.39
2023-03-20T03:24:40.233Z,52.85
2023-03-20T03:25:40.098Z,51.59
2023-03-20T03:26:43.016Z,50.44
2023-03-20T03:27:52.367Z,49.58
2023-03-20T03:29:00.765Z,51.44
2023-03-20T03:30:06.658Z,47.23
2023-03-20T03:31:15.366Z,49.42
2023-03-20T03:32:45.452Z,48.48
2023-03-20T03:33:51.185Z,50.45
2023-03-20T03:34:53.904Z,56.08
2023-03-20T03:35:59.580Z,52.22
2023-03-20T03:37:11.825Z,48.38
2023-03-20T03:38:23.561Z,53.13
2023-03-20T03:39:32.376Z,54.47
2023-03-20T03:41:04.135Z,49.94
2023-03-20T03:42:27.583Z,54.69
2023-03-20T03:43:51.630Z,48.82
2023-03-20T03:45:00.229Z,54.94
2023-03-20T03:46:06.230Z,57.50
2023-03-20T03:47:18.239Z,52.71
2023-03-20T03:48:23.985Z,51.77
2023-03-20T03:49:29.782Z,56.51
2023-03-20T03:50:38.277Z,60.06
2023-03-20T03:51:43.969Z,63.93
2023-03-20T03:52:48.812Z,58.71
2023-03-20T03:53:57.580Z,64.18
2023-03-20T03:55:12.080Z,63.16
2023-03-20T03:56:18.078Z,60.26
2023-03-20T03:57:23.910Z,65.60
2023-03-20T03:58:33.328Z,64.62
2023-03-20T03:59:41.915Z,68.06
2023-03-20T04:00:47.832Z,59.28
2023-03-20T04:01:51.952Z,59.99
2023-03-20T04:02:57.055Z,58.94
2023-03-20T04:04:04.872Z,52.53
2023-03-20T04:05:08.870Z,57.07
2023-03-20T04:06:11.870Z,52.55
2023-03-20T04:07:15.021Z,55.52
2023-03-20T04:08:17.194Z,54.16
2023-03-20T04:09:21.369Z,50.73
2023-03-20T04:10:24.317Z,52.30
2023-03-20T04:11:28.299Z,55.79
2023-03-20T04:12:36.394Z,51.39
2023-03-20T04:13:38.461Z,53.92
2023-03-20T04:14:40.362Z,50.35
2023-03-20T04:15:43.617Z,56.27
2023-03-20T04:16:47.535Z,46.08
2023-03-20T04:17:49.679Z,51.12
2023-03-20T04:18:53.030Z,44.81
2023-03-20T04:19:55.378Z,48.21
2023-03-20T04:20:57.875Z,44.34
2023-03-20T04:21:59.802Z,47.77
2023-03-20T04:23:01.811Z,47.63
2023-03-20T04:24:04.594Z,45.00
2023-03-20T04:25:10.537Z,48.74
2023-03-20T04:26:13.382Z,49.42
2023-03-20T04:27:15.364Z,46.40
2023-03-20T04:28:17.245Z,50.67
2023-03-20T04:29:19.252Z,49.25
2023-03-20T04:30:21.462Z,45.03
2023-03-20T04:31:23.589Z,48.94
2023-03-20T04:32:25.732Z,44.17
2023-03-20T04:33:28.524Z,51.92
2023-03-20T04:34:30.416Z,60.09
2023-03-20T04:35:32.349Z,51.43
2023-03-20T04:36:34.856Z,57.53
2023-03-20T04:37:37.014Z,51.01
2023-03-20T04:38:38.991Z,52.65
2023-03-20T04:39:40.877Z,49.10
2023-03-20T04:40:44.399Z,44.66
2023-03-20T04:41:49.466Z,44.81
2023-03-20T04:42:51.548Z,42.59
2023-03-20T04:43:55.465Z,45.89
2023-03-20T04:44:57.582Z,50.37
2023-03-20T04:46:00.658Z,46.71
2023-03-20T04:47:03.990Z,44.63
2023-03-20T04:48:06.990Z,45.10
2023-03-20T04:49:09.002Z,51.44
2023-03-20T04:50:11.454Z,52.04
2023-03-20T04:51:13.512Z,49.01
2023-03-20T04:52:15.695Z,50.27
2023-03-20T04:53:21.002Z,47.30
2023-03-20T04:54:23.504Z,49.94
2023-03-20T04:55:25.546Z,54.69
2023-03-20T04:56:27.988Z,55.03
2023-03-20T04:57:30.000Z,52.00
2023-03-20T04:58:31.887Z,52.30
2023-03-20T04:59:33.910Z,53.00
2023-03-20T05:00:38.325Z,57.68
2023-03-20T05:01:40.252Z,53.95
2023-03-20T05:02:43.756Z,60.78
2023-03-20T05:03:45.979Z,59.91
2023-03-20T05:04:48.008Z,65.98
2023-03-20T05:05:50.233Z,60.71
2023-03-20T05:06:52.681Z,71.63
2023-03-20T05:07:58.097Z,72.72
2023-03-20T05:09:00.493Z,67.22
2023-03-20T05:10:05.942Z,67.33
2023-03-20T05:11:08.221Z,61.27
2023-03-20T05:12:10.575Z,64.77
2023-03-20T05:13:12.853Z,69.71
2023-03-20T05:14:14.887Z,60.65
2023-03-20T05:15:17.693Z,57.99
2023-03-20T05:16:20.236Z,60.88
2023-03-20T05:17:25.481Z,54.98
2023-03-20T05:18:27.864Z,58.22
2023-03-20T05:19:31.131Z,53.15
2023-03-20T05:20:35.488Z,56.56
2023-03-20T05:21:37.608Z,49.56
2023-03-20T05:22:39.560Z,49.07
2023-03-20T05:23:41.556Z,54.01
2023-03-20T05:24:43.671Z,51.59
2023-03-20T05:25:45.678Z,53.59
2023-03-20T05:26:48.110Z,52.88
2023-03-20T05:27:50.224Z,56.63
2023-03-20T05:28:52.347Z,73.81
2023-03-20T05:29:54.495Z,75.77
2023-03-20T05:30:56.895Z,95.63
2023-03-20T05:32:00.224Z,75.93
2023-03-20T05:33:02.315Z,67.66
2023-03-20T05:34:05.053Z,63.79
2023-03-20T05:35:08.034Z,61.18
2023-03-20T05:36:10.177Z,54.89
2023-03-20T05:37:12.119Z,57.15
2023-03-20T05:38:14.149Z,63.00
2023-03-20T05:39:16.270Z,57.99
2023-03-20T05:40:18.804Z,62.87
2023-03-20T05:41:20.799Z,57.99
2023-03-20T05:42:22.680Z,57.60
2023-03-20T05:43:25.095Z,56.57
2023-03-20T05:44:27.249Z,59.42
2023-03-20T05:45:29.976Z,53.10
2023-03-20T05:46:31.999Z,57.31
2023-03-20T05:47:34.194Z,55.72
2023-03-20T05:48:36.082Z,55.49
2023-03-20T05:49:38.083Z,57.31
2023-03-20T05:50:40.766Z,53.43
2023-03-20T05:51:42.658Z,61.23
2023-03-20T05:52:48.623Z,53.55
2023-03-20T05:53:50.684Z,59.42
2023-03-20T05:54:52.744Z,56.83
2023-03-20T05:55:54.677Z,55.63
2023-03-20T05:56:59.007Z,62.06
2023-03-20T05:58:02.751Z,59.02
2023-03-20T05:59:06.925Z,65.40
2023-03-20T06:00:11.041Z,83.51
2023-03-20T06:01:13.080Z,94.20
2023-03-20T06:02:15.777Z,97.39
2023-03-20T06:03:18.270Z,82.49
2023-03-20T06:04:20.307Z,74.93
2023-03-20T06:05:22.203Z,61.10
2023-03-20T06:06:24.614Z,59.27
2023-03-20T06:07:26.546Z,55.91
2023-03-20T06:08:28.517Z,55.71
2023-03-20T06:09:30.391Z,52.04
2023-03-20T06:10:32.718Z,56.33
2023-03-20T06:11:37.371Z,57.93
2023-03-20T06:12:38.665Z,56.42
2023-03-20T06:13:44.467Z,57.66
2023-03-20T06:14:46.386Z,60.47
2023-03-20T06:15:48.415Z,56.97
2023-03-20T06:16:52.515Z,54.52
2023-03-20T06:17:55.638Z,58.85
2023-03-20T06:18:57.554Z,58.30
2023-03-20T06:19:59.559Z,54.01
2023-03-20T06:21:01.572Z,55.92
2023-03-20T06:22:04.133Z,58.22
2023-03-20T06:23:06.838Z,55.08
2023-03-20T06:24:08.795Z,53.67
2023-03-20T06:25:10.693Z,50.94
2023-03-20T06:26:12.805Z,49.31
2023-03-20T06:27:15.018Z,53.43
2023-03-20T06:28:17.072Z,48.81
2023-03-20T06:29:19.014Z,52.31
2023-03-20T06:30:21.068Z,54.67
2023-03-20T06:31:25.624Z,52.22
2023-03-20T06:32:27.606Z,54.99
2023-03-20T06:33:29.494Z,54.09
2023-03-20T06:34:31.566Z,57.75
2023-03-20T06:35:33.790Z,56.17
2023-03-20T06:36:36.893Z,55.48
2023-03-20T06:37:39.328Z,50.79
2023-03-20T06:38:41.351Z,51.44
2023-03-20T06:39:43.686Z,53.06
2023-03-20T06:40:46.070Z,54.19
2023-03-20T06:41:47.965Z,53.67
2023-03-20T06:42:50.006Z,52.15
2023-03-20T06:43:52.270Z,51.93
2023-03-20T06:44:54.454Z,56.23
2023-03-20T06:45:56.478Z,56.46
2023-03-20T06:46:58.787Z,53.42
2023-03-20T06:48:00.859Z,56.16
2023-03-20T06:49:04.305Z,51.66
2023-03-20T06:50:09.147Z,52.21
2023-03-20T06:51:11.109Z,48.22
2023-03-20T06:52:18.751Z,51.39
2023-03-20T06:53:21.688Z,50.14
2023-03-20T06:54:23.599Z,51.55
2023-03-20T06:55:25.623Z,50.25
2023-03-20T06:56:27.641Z,48.51
2023-03-20T06:57:30.988Z,56.26
2023-03-20T06:58:35.037Z,47.73
2023-03-20T06:59:37.128Z,49.04
2023-03-20T07:00:39.246Z,43.28
2023-03-20T07:01:42.036Z,43.23
2023-03-20T07:02:44.124Z,48.63
2023-03-20T07:03:47.062Z,45.66
2023-03-20T07:04:50.174Z,47.63
2023-03-20T07:05:52.211Z,48.26
2023-03-20T07:06:54.981Z,45.45
2023-03-20T07:07:58.294Z,44.96
2023-03-20T07:09:01.075Z,42.40
2023-03-20T07:10:04.626Z,41.57
2023-03-20T07:11:07.388Z,42.28
2023-03-20T07:12:13.128Z,39.58
2023-03-20T07:13:15.085Z,45.90
2023-03-20T07:14:37.791Z,41.28
2023-03-20T07:15:43.880Z,41.85
2023-03-20T07:16:43.888Z,39.41
2023-03-20T07:17:46.635Z,42.89
2023-03-20T07:18:48.784Z,41.01
2023-03-20T07:19:50.803Z,42.35
2023-03-20T07:20:55.493Z,42.37
2023-03-20T07:21:59.992Z,42.52
2023-03-20T07:23:02.166Z,40.48
2023-03-20T07:24:04.348Z,42.87
2023-03-20T07:25:08.062Z,42.97
2023-03-20T07:26:11.949Z,42.04
2023-03-20T07:27:14.676Z,37.59
2023-03-20T07:28:16.850Z,44.71
2023-03-20T07:29:18.729Z,36.69
2023-03-20T07:30:20.849Z,40.15
2023-03-20T07:31:25.748Z,36.81
2023-03-20T07:32:27.734Z,37.05
2023-03-20T07:33:29.808Z,38.61
2023-03-20T07:34:31.704Z,36.87
2023-03-20T07:35:33.974Z,37.75
2023-03-20T07:36:36.255Z,35.82
2023-03-20T07:37:39.495Z,32.53
2023-03-20T07:38:41.627Z,34.89
2023-03-20T07:39:43.715Z,35.08
2023-03-20T07:40:46.040Z,31.43
2023-03-20T07:41:48.243Z,30.01
2023-03-20T07:42:50.233Z,29.17
2023-03-20T07:43:52.597Z,30.83
2023-03-20T07:44:54.554Z,37.33
2023-03-20T07:45:56.679Z,30.06
2023-03-20T07:46:58.949Z,31.06
2023-03-20T07:48:02.064Z,31.77
2023-03-20T07:49:04.111Z,33.64
2023-03-20T07:50:08.294Z,30.76
2023-03-20T07:51:10.982Z,28.92
2023-03-20T07:52:13.426Z,26.43
2023-03-20T07:53:15.478Z,24.31
2023-03-20T07:54:17.905Z,25.97
2023-03-20T07:55:20.084Z,28.33
2023-03-20T07:56:22.238Z,29.07
2023-03-20T07:57:24.131Z,27.62
2023-03-20T07:58:26.135Z,30.75
2023-03-20T07:59:28.011Z,28.33
2023-03-20T08:00:30.332Z,23.60
2023-03-20T08:01:33.065Z,26.07
2023-03-20T08:02:35.096Z,22.00
2023-03-20T08:03:37.219Z,21.73
2023-03-20T08:04:40.288Z,26.68
2023-03-20T08:05:45.834Z,29.23
2023-03-20T08:06:47.342Z,24.71
2023-03-20T08:07:49.549Z,21.43
2023-03-20T08:08:52.041Z,23.23
2023-03-20T08:09:54.598Z,28.97
2023-03-20T08:10:56.806Z,26.00
2023-03-20T08:11:58.715Z,23.54
2023-03-20T08:13:00.822Z,25.10
2023-03-20T08:14:02.800Z,26.57
2023-03-20T08:15:06.503Z,29.17
2023-03-20T08:16:10.159Z,24.29
2023-03-20T08:17:16.070Z,20.77
2023-03-20T08:18:16.902Z,22.51
2023-03-20T08:19:19.018Z,17.11
2023-03-20T08:20:21.002Z,16.00
2023-03-20T08:21:23.175Z,17.88
2023-03-20T08:22:26.166Z,17.49
2023-03-20T08:23:28.371Z,15.05
2023-03-20T08:24:31.858Z,14.43
2023-03-20T08:25:35.242Z,16.82
2023-03-20T08:26:37.672Z,15.29
2023-03-20T08:27:41.192Z,13.39
2023-03-20T08:28:48.389Z,18.15
2023-03-20T08:29:47.271Z,14.83
2023-03-20T08:30:49.687Z,16.97
2023-03-20T08:31:52.062Z,16.04
2023-03-20T08:32:54.143Z,18.31
2023-03-20T08:33:56.459Z,16.15
2023-03-20T08:34:58.424Z,17.02
2023-03-20T08:36:00.487Z,13.91
2023-03-20T08:37:04.264Z,15.91
2023-03-20T08:38:06.340Z,12.99
2023-03-20T08:39:08.715Z,14.04
2023-03-20T08:40:12.332Z,12.03
2023-03-20T08:41:14.946Z,15.56
2023-03-20T08:42:17.915Z,15.60
2023-03-20T08:43:20.771Z,13.81
2023-03-20T08:44:23.206Z,16.00
2023-03-20T08:45:25.466Z,12.25
2023-03-20T08:46:28.253Z,16.35
2023-03-20T08:47:30.965Z,18.95
2023-03-20T08:48:34.990Z,15.09
2023-03-20T08:49:37.263Z,16.17
2023-03-20T08:50:39.475Z,15.76
2023-03-20T08:51:41.474Z,13.37
2023-03-20T08:52:44.593Z,13.54
2023-03-20T08:53:46.923Z,12.83
2023-03-20T08:54:48.929Z,11.52
2023-03-20T08:55:51.913Z,13.97
2023-03-20T08:56:54.477Z,13.90
2023-03-20T08:57:56.642Z,13.73
2023-03-20T08:58:59.102Z,13.54
2023-03-20T09:00:01.231Z,14.03
2023-03-20T09:01:05.595Z,13.89
2023-03-20T09:02:10.307Z,17.65
2023-03-20T09:03:18.003Z,16.31
2023-03-20T09:04:20.171Z,13.68
2023-03-20T09:05:22.157Z,14.71
2023-03-20T09:06:24.275Z,13.55
2023-03-20T09:07:26.398Z,14.97
2023-03-20T09:08:28.449Z,13.87
2023-03-20T09:09:30.636Z,16.97
2023-03-20T09:10:32.993Z,15.45
2023-03-20T09:11:37.652Z,14.48
2023-03-20T09:12:39.731Z,14.96
2023-03-20T09:13:42.083Z,14.51
2023-03-20T09:14:44.844Z,17.11
2023-03-20T09:15:48.088Z,15.09
2023-03-20T09:16:51.661Z,14.61
2023-03-20T09:17:53.928Z,17.84
2023-03-20T09:18:55.975Z,16.09
2023-03-20T09:20:01.906Z,15.09
2023-03-20T09:21:04.758Z,18.29
2023-03-20T09:22:06.864Z,16.61
2023-03-20T09:23:09.214Z,16.63
2023-03-20T09:24:11.897Z,17.39
2023-03-20T09:25:14.588Z,18.71
2023-03-20T09:26:16.984Z,16.67
2023-03-20T09:27:19.854Z,20.18
2023-03-20T09:28:21.940Z,16.67
2023-03-20T09:29:24.367Z,15.62
2023-03-20T09:30:26.695Z,16.58
2023-03-20T09:31:28.903Z,17.32
2023-03-20T09:32:31.001Z,18.35
2023-03-20T09:33:33.283Z,16.90
2023-03-20T09:34:35.233Z,15.85
2023-03-20T09:35:38.802Z,18.81
2023-03-20T09:36:41.122Z,16.94
2023-03-20T09:37:43.474Z,15.96
2023-03-20T09:38:45.359Z,15.37
2023-03-20T09:39:48.239Z,16.26
2023-03-20T09:41:02.127Z,17.55
2023-03-20T09:43:26.967Z,17.67
2023-03-20T09:44:36.193Z,16.20
2023-03-20T09:45:46.199Z,18.15
2023-03-20T09:47:18.915Z,15.83
2023-03-20T09:48:14.848Z,12.94
2023-03-20T09:49:23.639Z,15.03
2023-03-20T09:50:36.057Z,17.77
2023-03-20T09:51:48.510Z,15.27
2023-03-20T09:53:12.196Z,15.68
2023-03-20T09:54:27.093Z,15.93
2023-03-20T09:55:40.965Z,14.13
2023-03-20T09:56:43.394Z,14.46
2023-03-20T09:57:52.724Z,14.61
2023-03-20T09:59:00.996Z,11.27
2023-03-20T10:00:07.431Z,14.60
2023-03-20T10:01:13.053Z,12.39
2023-03-20T10:02:19.236Z,15.47
2023-03-20T10:03:42.212Z,13.74
2023-03-20T10:04:49.317Z,14.01
2023-03-20T10:06:00.937Z,13.96
2023-03-20T10:07:05.218Z,12.69
2023-03-20T10:08:15.027Z,15.28
2023-03-20T10:09:28.571Z,13.72
2023-03-20T10:10:41.144Z,12.61
2023-03-20T10:12:05.919Z,10.79
2023-03-20T10:13:32.363Z,11.75
2023-03-20T10:14:54.791Z,11.92
2023-03-20T10:16:15.111Z,15.20
2023-03-20T10:17:29.848Z,12.59
2023-03-20T10:18:35.548Z,13.01
2023-03-20T10:19:57.403Z,10.72
2023-03-20T10:21:12.201Z,11.78
2023-03-20T10:22:21.189Z,10.00
2023-03-20T10:23:27.172Z,9.85
2023-03-20T10:24:51.240Z,11.85
2023-03-20T10:25:59.883Z,11.27
2023-03-20T10:27:08.303Z,9.80
2023-03-20T10:28:26.008Z,10.59
2023-03-20T10:29:41.629Z,10.66
2023-03-20T10:31:08.778Z,10.74
2023-03-20T10:33:39.409Z,11.21
2023-03-20T10:35:08.864Z,11.78
2023-03-20T10:36:45.411Z,10.47
2023-03-20T10:39:05.076Z,12.04
2023-03-20T10:40:29.230Z,12.30
2023-03-20T10:41:35.014Z,15.42
2023-03-20T10:42:40.739Z,14.37
2023-03-20T10:43:45.177Z,12.10
2023-03-20T10:44:50.985Z,11.58
2023-03-20T10:46:03.041Z,12.63
2023-03-20T10:47:08.849Z,12.11
2023-03-20T10:48:26.992Z,12.09
2023-03-20T10:49:38.566Z,10.74
2023-03-20T10:50:47.547Z,13.46
2023-03-20T10:51:55.620Z,12.97
2023-03-20T10:53:00.137Z,13.43
2023-03-20T10:54:05.916Z,12.25
2023-03-20T10:56:41.286Z,12.89
2023-03-20T10:57:52.863Z,13.53
2023-03-20T10:59:59.254Z,14.64
2023-03-20T11:01:01.484Z,14.11
2023-03-20T11:02:12.234Z,15.09
2023-03-20T11:05:32.743Z,16.45
2023-03-20T11:06:38.869Z,18.09
2023-03-20T11:07:42.167Z,16.80
2023-03-20T11:08:48.165Z,17.32
2023-03-20T11:10:09.054Z,15.33
2023-03-20T11:11:11.196Z,15.94
2023-03-20T11:12:19.412Z,17.10
2023-03-20T11:13:36.292Z,15.58
2023-03-20T11:14:39.175Z,19.14
2023-03-20T11:15:41.297Z,16.42
2023-03-20T11:16:50.303Z,16.12
2023-03-20T11:18:05.453Z,17.40
2023-03-20T11:19:11.057Z,17.14
2023-03-20T11:20:14.493Z,15.15
2023-03-20T11:21:20.278Z,16.16
2023-03-20T11:22:25.366Z,17.24
2023-03-20T11:23:35.649Z,15.05
2023-03-20T11:24:41.128Z,17.61
2023-03-20T11:25:57.996Z,22.16
2023-03-20T11:27:15.450Z,17.19
2023-03-20T11:28:27.488Z,17.79
2023-03-20T11:29:31.898Z,16.92
2023-03-20T11:30:37.980Z,17.41
2023-03-20T11:31:41.578Z,16.52
2023-03-20T11:32:49.468Z,12.67
2023-03-20T11:34:16.634Z,17.84
2023-03-20T11:35:29.030Z,15.14
2023-03-20T11:36:33.112Z,18.52
2023-03-20T11:37:35.962Z,16.04
2023-03-20T11:38:45.511Z,16.53
2023-03-20T11:40:03.532Z,13.68
2023-03-20T11:41:09.265Z,12.91
2023-03-20T11:42:26.290Z,13.51
2023-03-20T11:43:28.444Z,15.49
2023-03-20T11:44:35.418Z,14.63
2023-03-20T11:45:44.316Z,16.56
2023-03-20T11:46:59.575Z,12.10
2023-03-20T11:48:04.044Z,12.18
2023-03-20T11:49:19.040Z,11.19
2023-03-20T11:50:33.675Z,12.42
2023-03-20T11:51:36.822Z,17.24
2023-03-20T11:52:39.992Z,15.81
2023-03-20T11:53:48.579Z,17.51
2023-03-20T11:54:54.207Z,16.65
2023-03-20T11:56:06.165Z,15.66
2023-03-20T11:57:11.955Z,16.76
2023-03-20T11:58:16.686Z,14.81
2023-03-20T11:59:22.886Z,14.52
2023-03-20T12:00:31.813Z,13.29
2023-03-20T12:01:43.048Z,12.64
2023-03-20T12:02:45.305Z,12.68
2023-03-20T12:04:11.069Z,35.63
2023-03-20T12:05:35.340Z,12.72
2023-03-20T12:06:44.316Z,13.26
2023-03-20T12:07:51.257Z,13.29
2023-03-20T12:09:02.769Z,15.44
2023-03-20T12:10:07.865Z,13.87
2023-03-20T12:11:22.456Z,10.66
2023-03-20T12:12:43.478Z,15.18
2023-03-20T12:13:48.878Z,12.85
2023-03-20T12:15:06.916Z,15.20
2023-03-20T12:17:49.470Z,15.83
2023-03-20T12:19:07.010Z,11.91
2023-03-20T12:20:42.291Z,12.41
2023-03-20T12:21:48.531Z,14.25
2023-03-20T12:23:11.936Z,16.42
2023-03-20T12:25:50.732Z,16.61
2023-03-20T12:27:02.416Z,16.73
2023-03-20T12:28:23.556Z,14.82
2023-03-20T12:29:31.860Z,15.08
2023-03-20T12:31:10.656Z,12.51
2023-03-20T12:32:16.498Z,14.53
2023-03-20T12:33:28.144Z,15.96
2023-03-20T12:34:36.771Z,16.53
2023-03-20T12:35:42.524Z,15.24
2023-03-20T12:36:48.012Z,11.82
2023-03-20T12:37:51.877Z,11.92
2023-03-20T12:38:54.837Z,13.84
2023-03-20T12:40:00.528Z,11.20
2023-03-20T12:41:24.469Z,11.60
2023-03-20T12:42:35.750Z,13.54
2023-03-20T12:43:44.481Z,12.76
2023-03-20T12:44:56.103Z,13.27
2023-03-20T12:46:08.229Z,12.62
2023-03-20T12:47:19.772Z,12.73
2023-03-20T12:48:40.949Z,12.80
2023-03-20T12:50:08.290Z,11.26
2023-03-20T12:51:39.760Z,12.38
2023-03-20T12:52:57.570Z,14.36
2023-03-20T12:58:22.156Z,14.03
2023-03-20T13:00:01.748Z,12.11
2023-03-20T13:01:10.470Z,13.30
2023-03-20T13:02:22.628Z,12.65
2023-03-20T13:03:43.631Z,11.92
2023-03-20T13:04:55.415Z,11.38
2023-03-20T13:06:16.383Z,11.78
2023-03-20T13:08:38.534Z,15.05
2023-03-20T13:10:01.291Z,15.21
2023-03-20T13:11:17.180Z,19.23
2023-03-20T13:12:41.420Z,11.73
2023-03-20T13:13:48.192Z,14.15
2023-03-20T13:15:14.632Z,11.95
2023-03-20T13:17:39.442Z,11.47
2023-03-20T13:18:54.311Z,9.96
2023-03-20T13:20:00.124Z,13.88
2023-03-20T13:21:06.042Z,15.84
2023-03-20T13:22:20.946Z,13.23
2023-03-20T13:23:26.716Z,11.29
2023-03-20T13:24:53.003Z,12.79
2023-03-20T13:26:01.998Z,9.77
2023-03-20T13:27:34.412Z,14.65
2023-03-20T13:28:49.807Z,12.22
2023-03-20T13:30:26.239Z,11.91
2023-03-20T13:31:40.898Z,11.78
2023-03-20T13:33:20.608Z,10.93
2023-03-20T13:34:44.661Z,11.51
2023-03-20T13:36:11.702Z,11.83
2023-03-20T13:37:38.655Z,13.41
2023-03-20T13:38:44.447Z,12.64
2023-03-20T13:40:07.043Z,14.29
2023-03-20T13:41:10.271Z,9.71
2023-03-20T13:42:16.172Z,11.09
2023-03-20T13:43:26.220Z,12.85
2023-03-20T13:44:31.603Z,14.82
2023-03-20T13:45:42.049Z,12.28
2023-03-20T13:48:01.488Z,13.77
2023-03-20T13:49:27.282Z,12.05
2023-03-20T13:50:33.529Z,11.71
2023-03-20T13:51:42.448Z,16.07
2023-03-20T13:52:51.788Z,14.56
2023-03-20T13:54:14.322Z,12.28
2023-03-20T13:55:25.544Z,10.63
2023-03-20T13:57:41.313Z,12.82
2023-03-20T13:58:47.201Z,14.65
2023-03-20T14:00:17.461Z,14.92
2023-03-20T14:01:26.765Z,11.05
2023-03-20T14:02:48.698Z,13.23
2023-03-20T14:03:52.697Z,12.42
2023-03-20T14:05:01.706Z,10.86
2023-03-20T14:06:32.428Z,12.19
2023-03-20T14:07:37.525Z,9.76
2023-03-20T14:08:43.286Z,15.89
2023-03-20T14:09:45.662Z,11.36
2023-03-20T14:10:50.080Z,11.21
2023-03-20T14:11:55.438Z,10.50
2023-03-20T14:14:16.784Z,11.31
2023-03-20T14:15:21.121Z,9.11
2023-03-20T14:16:25.618Z,10.23
2023-03-20T14:17:30.122Z,11.53
2023-03-20T14:18:32.453Z,13.41
2023-03-20T14:19:37.912Z,11.16
2023-03-20T14:20:42.909Z,11.20
2023-03-20T14:21:48.114Z,10.10
2023-03-20T14:22:50.779Z,11.63
2023-03-20T14:24:05.419Z,11.69
2023-03-20T14:25:11.449Z,11.18
2023-03-20T14:26:20.344Z,10.13
2023-03-20T14:27:42.918Z,11.00
2023-03-20T14:28:30.937Z,10.08
2023-03-20T14:29:38.262Z,11.33
2023-03-20T14:30:43.854Z,14.91
2023-03-20T14:31:50.091Z,11.47
2023-03-20T14:32:55.879Z,11.16
2023-03-20T14:34:01.607Z,9.44
2023-03-20T14:35:22.603Z,13.93
2023-03-20T14:36:29.637Z,12.14
2023-03-20T14:38:09.325Z,11.28
2023-03-20T14:39:22.160Z,9.84
2023-03-20T14:40:28.094Z,11.50
2023-03-20T14:41:36.839Z,12.07
2023-03-20T14:42:51.338Z,9.44
2023-03-20T14:44:27.823Z,13.05
2023-03-20T14:45:39.854Z,12.22
2023-03-20T14:46:55.221Z,12.73
2023-03-20T14:48:23.587Z,13.32
2023-03-20T14:49:44.382Z,11.24
2023-03-20T14:51:54.350Z,19.40
2023-03-20T14:53:14.751Z,15.32
2023-03-20T14:55:56.448Z,13.47
2023-03-20T14:57:11.431Z,14.76
2023-03-20T14:58:33.993Z,11.84
2023-03-20T14:59:36.646Z,13.99
2023-03-20T15:00:46.065Z,14.45